createdAt,value
2019-05-22T10:41:23.016Z,27.18
2019-05-22T10:43:56.211Z,26.90
2019-05-22T10:46:27.335Z,27.01
2019-05-22T10:48:59.551Z,26.36
2019-05-22T10:51:31.591Z,26.05
2019-05-22T10:54:04.067Z,25.92
2019-05-22T10:56:36.539Z,26.23
2019-05-22T10:59:10.071Z,26.38
2019-05-22T11:01:43.356Z,26.90
2019-05-22T11:04:19.363Z,27.34
2019-05-22T11:06:50.132Z,27.38
2019-05-22T11:09:25.951Z,27.78
2019-05-22T11:11:59.955Z,27.93
2019-05-22T11:14:33.231Z,27.85
2019-05-22T11:17:06.909Z,27.27
2019-05-22T11:19:39.036Z,26.99
2019-05-22T11:22:12.221Z,27.26
2019-05-22T11:24:46.632Z,26.85
2019-05-22T11:27:18.772Z,26.66
2019-05-22T11:29:50.794Z,26.47
2019-05-22T11:32:24.798Z,26.23
2019-05-22T11:34:56.541Z,26.46
2019-05-22T11:37:27.632Z,26.87
2019-05-22T11:39:59.616Z,27.14
2019-05-22T11:42:31.517Z,27.09
2019-05-22T11:45:02.290Z,27.10
2019-05-22T11:47:35.136Z,27.20
2019-05-22T11:50:06.507Z,27.32
2019-05-22T11:52:38.316Z,27.22
2019-05-22T11:55:11.159Z,27.33
2019-05-22T11:57:44.259Z,27.57
2019-05-22T12:00:16.756Z,27.92
2019-05-22T12:02:48.116Z,28.22
2019-05-22T12:05:20.550Z,27.72
2019-05-22T12:07:51.833Z,27.35
2019-05-22T12:10:24.750Z,26.86
2019-05-22T12:12:56.914Z,26.23
2019-05-22T12:15:29.892Z,26.00
2019-05-22T12:18:00.812Z,25.62
2019-05-22T12:20:32.860Z,25.71
2019-05-22T12:23:04.031Z,25.83
2019-05-22T12:25:35.830Z,25.89
2019-05-22T12:28:07.232Z,25.86
2019-05-22T12:30:41.643Z,25.96
2019-05-22T12:33:14.305Z,26.06
2019-05-22T12:35:44.971Z,26.02
2019-05-22T12:38:16.672Z,26.02
2019-05-22T12:40:47.576Z,26.01
2019-05-22T12:43:19.331Z,25.97
2019-05-22T12:45:50.192Z,25.93
2019-05-22T12:48:23.190Z,25.97
2019-05-22T12:50:55.310Z,25.99
2019-05-22T12:53:28.898Z,25.76
2019-05-22T12:56:03.750Z,25.39
2019-05-22T12:58:36.791Z,25.10
2019-05-22T13:01:09.511Z,24.90
2019-05-22T13:03:42.013Z,24.57
2019-05-22T13:06:14.810Z,24.29
2019-05-22T13:08:46.951Z,24.24
2019-05-22T13:11:19.210Z,24.22
2019-05-22T13:13:53.734Z,24.49
2019-05-22T13:16:26.770Z,24.67
2019-05-22T13:18:59.474Z,24.91
2019-05-22T13:21:35.322Z,25.13
2019-05-22T13:24:16.691Z,25.39
2019-05-22T13:26:51.279Z,25.24
2019-05-22T13:29:24.530Z,25.11
2019-05-22T13:31:57.662Z,25.08
2019-05-22T13:34:32.572Z,25.12
2019-05-22T13:37:05.712Z,25.00
2019-05-22T13:39:38.451Z,25.08
2019-05-22T13:42:13.456Z,25.09
2019-05-22T13:44:47.380Z,25.17
2019-05-22T13:47:19.515Z,25.02
2019-05-22T13:49:52.039Z,24.96
2019-05-22T13:52:25.088Z,25.02
2019-05-22T13:54:57.836Z,25.09
2019-05-22T13:57:29.191Z,25.38
2019-05-22T14:00:01.894Z,25.28
2019-05-22T14:02:34.111Z,25.25
2019-05-22T14:05:06.694Z,25.44
2019-05-22T14:07:38.802Z,25.57
2019-05-22T14:10:10.692Z,25.67
2019-05-22T14:12:42.436Z,25.66
2019-05-22T14:15:14.350Z,25.69
2019-05-22T14:17:48.150Z,25.73
2019-05-22T14:20:23.493Z,25.77
2019-05-22T14:22:54.787Z,25.86
2019-05-22T14:25:28.812Z,25.92
2019-05-22T14:28:00.655Z,26.04
2019-05-22T14:30:33.766Z,25.95
2019-05-22T14:33:06.518Z,25.43
2019-05-22T14:35:48.265Z,25.08
2019-05-22T14:38:16.824Z,24.84
2019-05-22T14:40:49.097Z,24.75
2019-05-22T14:43:23.226Z,24.87
2019-05-22T14:45:55.159Z,24.98
2019-05-22T14:48:28.567Z,25.03
2019-05-22T14:51:00.419Z,25.06
2019-05-22T14:53:32.421Z,24.98
2019-05-22T14:56:10.405Z,24.80
2019-05-22T14:58:44.424Z,24.74
2019-05-22T15:01:17.299Z,24.76
2019-05-22T15:03:50.303Z,24.67
2019-05-22T15:06:22.696Z,24.51
2019-05-22T15:08:55.479Z,24.13
2019-05-22T15:11:30.327Z,24.13
2019-05-22T15:14:02.953Z,24.16
2019-05-22T15:16:36.099Z,24.40
2019-05-22T15:19:08.989Z,24.50
2019-05-22T15:21:41.106Z,24.48
2019-05-22T15:24:13.389Z,24.43
2019-05-22T15:26:47.049Z,24.43
2019-05-22T15:29:20.042Z,24.40
2019-05-22T15:31:54.665Z,24.49
2019-05-22T15:34:29.788Z,24.45
2019-05-22T15:37:03.214Z,24.42
2019-05-22T15:39:35.267Z,24.51
2019-05-22T15:42:08.641Z,24.61
2019-05-22T15:44:42.278Z,24.70
2019-05-22T15:47:24.611Z,24.75
2019-05-22T15:49:58.108Z,24.75
2019-05-22T15:52:35.943Z,24.45
2019-05-22T15:55:09.438Z,24.38
2019-05-22T15:57:43.025Z,24.45
2019-05-22T16:00:22.877Z,24.38
2019-05-22T16:03:03.279Z,24.48
2019-05-22T16:05:39.786Z,24.58
2019-05-22T16:08:12.586Z,24.52
2019-05-22T16:10:47.861Z,24.50
2019-05-22T16:13:21.410Z,24.50
2019-05-22T16:15:55.985Z,24.60
2019-05-22T16:18:32.506Z,24.63
2019-05-22T16:21:06.531Z,24.30
2019-05-22T16:23:40.447Z,24.10
2019-05-22T16:26:14.243Z,24.06
2019-05-22T16:28:49.065Z,23.93
2019-05-22T16:31:22.347Z,24.06
2019-05-22T16:33:55.684Z,24.20
2019-05-22T16:36:29.874Z,24.33
2019-05-22T16:39:02.884Z,24.43
2019-05-22T16:41:36.264Z,24.41
2019-05-22T16:44:08.566Z,24.40
2019-05-22T16:46:42.172Z,24.42
2019-05-22T16:49:15.423Z,24.51
2019-05-22T16:51:47.844Z,24.61
2019-05-22T16:54:20.857Z,24.58
2019-05-22T16:56:53.591Z,24.57
2019-05-22T16:59:24.954Z,24.52
2019-05-22T17:02:00.330Z,24.44
2019-05-22T17:04:33.544Z,24.25
2019-05-22T17:07:06.128Z,24.10
2019-05-22T17:09:38.587Z,24.08
2019-05-22T17:12:11.644Z,24.12
2019-05-22T17:14:45.908Z,24.11
2019-05-22T17:17:20.663Z,24.14
2019-05-22T17:19:52.983Z,24.23
2019-05-22T17:22:38.817Z,24.30
2019-05-22T17:25:21.431Z,24.39
2019-05-22T17:27:56.253Z,24.35
2019-05-22T17:30:29.874Z,24.32
2019-05-22T17:33:02.182Z,24.28
2019-05-22T17:35:34.573Z,24.31
2019-05-22T17:38:07.545Z,24.29
2019-05-22T17:40:40.805Z,24.36
2019-05-22T17:43:15.367Z,24.36
2019-05-22T17:45:48.266Z,24.31
2019-05-22T17:48:22.525Z,24.26
2019-05-22T17:50:56.870Z,24.15
2019-05-22T17:53:29.604Z,24.05
2019-05-22T17:56:01.293Z,24.04
2019-05-22T17:58:33.224Z,24.03
2019-05-22T18:01:04.993Z,24.09
2019-05-22T18:03:37.505Z,24.13
2019-05-22T18:06:10.987Z,24.09
2019-05-22T18:08:42.624Z,23.89
2019-05-22T18:11:14.345Z,23.80
2019-05-22T18:14:06.087Z,23.80
2019-05-22T18:16:37.143Z,23.72
2019-05-22T18:19:08.955Z,23.67
2019-05-22T18:21:40.641Z,23.64
2019-05-22T18:24:12.704Z,23.61
2019-05-22T18:26:44.142Z,23.63
2019-05-22T18:29:16.581Z,23.64
2019-05-22T18:31:48.386Z,23.65
2019-05-22T18:34:20.270Z,23.67
2019-05-22T18:36:52.267Z,23.71
2019-05-22T18:39:24.611Z,23.74
2019-05-22T18:41:56.896Z,23.77
2019-05-22T18:44:29.803Z,23.76
2019-05-22T18:47:02.188Z,23.73
2019-05-22T18:49:35.102Z,23.67
2019-05-22T18:52:06.928Z,23.67
2019-05-22T18:54:38.385Z,23.70
2019-05-22T18:57:09.403Z,23.71
2019-05-22T18:59:41.084Z,23.71
2019-05-22T19:02:12.663Z,23.67
2019-05-22T19:04:43.979Z,23.63
2019-05-22T19:07:16.893Z,23.58
2019-05-22T19:09:48.696Z,23.50
2019-05-22T19:12:21.455Z,23.42
2019-05-22T19:14:53.301Z,23.38
2019-05-22T19:17:25.974Z,23.37
2019-05-22T19:19:57.782Z,23.38
2019-05-22T19:22:31.502Z,23.35
2019-05-22T19:25:03.026Z,23.28
2019-05-22T19:27:34.654Z,23.23
2019-05-22T19:30:07.017Z,23.17
2019-05-22T19:32:38.034Z,23.13
2019-05-22T19:35:10.813Z,23.09
2019-05-22T19:37:44.541Z,23.06
2019-05-22T19:40:18.943Z,23.05
2019-05-22T19:42:51.608Z,23.04
2019-05-22T19:45:23.252Z,23.01
2019-05-22T19:47:58.063Z,22.98
2019-05-22T19:50:31.682Z,22.94
2019-05-22T19:53:18.314Z,22.88
2019-05-22T19:55:38.923Z,22.83
2019-05-22T19:58:11.403Z,22.81
2019-05-22T20:00:43.524Z,22.76
2019-05-22T20:03:15.324Z,22.70
2019-05-22T20:05:47.535Z,22.65
2019-05-22T20:08:20.304Z,22.62
2019-05-22T20:10:52.782Z,22.60
2019-05-22T20:13:25.183Z,22.56
2019-05-22T20:15:57.243Z,22.49
2019-05-22T20:18:28.363Z,22.43
2019-05-22T20:21:00.828Z,22.38
2019-05-22T20:23:37.179Z,22.36
2019-05-22T20:26:08.803Z,22.31
2019-05-22T20:28:40.025Z,22.21
2019-05-22T20:31:12.625Z,22.15
2019-05-22T20:33:45.044Z,22.12
2019-05-22T20:36:17.504Z,22.11
2019-05-22T20:38:50.523Z,22.04
2019-05-22T20:41:22.044Z,22.02
2019-05-22T20:43:55.163Z,21.99
2019-05-22T20:46:27.083Z,21.87
2019-05-22T20:49:01.521Z,21.79
2019-05-22T20:51:33.432Z,21.75
2019-05-22T20:54:06.448Z,21.74
2019-05-22T20:56:43.483Z,21.73
2019-05-22T20:59:16.482Z,21.74
2019-05-22T21:01:49.643Z,21.73
2019-05-22T21:04:24.825Z,21.69
2019-05-22T21:07:00.603Z,21.66
2019-05-22T21:09:35.844Z,21.73
2019-05-22T21:12:09.363Z,21.75
2019-05-22T21:14:42.543Z,21.78
2019-05-22T21:17:15.290Z,21.72
2019-05-22T21:19:49.283Z,21.72
2019-05-22T21:22:24.522Z,21.68
2019-05-22T21:24:57.004Z,21.62
2019-05-22T21:27:31.110Z,21.56
2019-05-22T21:30:04.303Z,21.49
2019-05-22T21:32:38.623Z,21.49
2019-05-22T21:35:12.064Z,21.43
2019-05-22T21:37:43.283Z,21.32
2019-05-22T21:40:16.293Z,21.20
2019-05-22T21:42:50.138Z,21.13
2019-05-22T21:45:23.252Z,21.04
2019-05-22T21:47:56.785Z,20.98
2019-05-22T21:50:30.286Z,20.86
2019-05-22T21:53:04.873Z,20.75
2019-05-22T21:55:39.763Z,20.63
2019-05-22T21:58:12.523Z,20.60
2019-05-22T22:01:05.774Z,20.56
2019-05-22T22:03:41.803Z,20.56
2019-05-22T22:06:17.109Z,20.54
2019-05-22T22:08:49.346Z,20.53
2019-05-22T22:11:22.885Z,20.50
2019-05-22T22:13:55.091Z,20.37
2019-05-22T22:16:27.742Z,20.21
2019-05-22T22:19:00.205Z,20.08
2019-05-22T22:21:33.965Z,20.01
2019-05-22T22:24:06.131Z,19.95
2019-05-22T22:26:38.725Z,19.94
2019-05-22T22:29:11.613Z,19.92
2019-05-22T22:31:47.892Z,19.92
2019-05-22T22:34:26.059Z,19.93
2019-05-22T22:36:59.636Z,19.97
2019-05-22T22:39:33.164Z,19.96
2019-05-22T22:42:07.927Z,19.96
2019-05-22T22:44:40.727Z,19.93
2019-05-22T22:47:17.047Z,19.94
2019-05-22T22:49:49.831Z,19.97
2019-05-22T22:52:22.687Z,20.00
2019-05-22T22:54:55.348Z,20.04
2019-05-22T22:57:28.243Z,20.05
2019-05-22T23:00:00.584Z,20.03
2019-05-22T23:02:35.450Z,20.01
2019-05-22T23:05:09.724Z,20.01
2019-05-22T23:07:43.019Z,19.95
2019-05-22T23:10:22.239Z,19.88
2019-05-22T23:12:57.443Z,19.84
2019-05-22T23:15:30.367Z,19.85
2019-05-22T23:18:03.996Z,19.88
2019-05-22T23:20:44.545Z,19.90
2019-05-22T23:23:14.383Z,19.90
2019-05-22T23:25:46.947Z,19.85
2019-05-22T23:28:34.270Z,19.80
2019-05-22T23:31:02.173Z,19.73
2019-05-22T23:33:36.379Z,19.61
2019-05-22T23:36:12.168Z,19.54
2019-05-22T23:38:45.749Z,19.43
2019-05-22T23:41:17.695Z,19.36
2019-05-22T23:43:53.888Z,19.33
2019-05-22T23:46:29.592Z,19.27
2019-05-22T23:49:01.538Z,19.24
2019-05-22T23:51:33.456Z,19.13
2019-05-22T23:54:06.420Z,18.92
2019-05-22T23:56:39.351Z,18.82
2019-05-22T23:59:12.190Z,18.86
